Country
Station

 

Weather  for  Serui/Yendosa  -  Indonesia    Indonesia

  
24 °C (75 °F)
    
 
 

Current METAR for Serui/Yendosa is :

WABO 082100Z 14002KT 8000 -RA FEW012 BKN120 24/23 Q1010

 

This is a report for Serui/Yendosa - Indonesia.
 
The report was made 568 hours and 57 minutes ago, at 21:00 UTC .
The wind was blowing at a speed of 1.0 meters per second (2.3 miles per hour) from southeast (140°).
 
The temperature was 24 °C (75 °F), with a dew-point at 23 °C (73 °F).
The temperature felt like 23 °C (73 °F).
 
The atmospheric pressure was 1010 hPa (29.83 inHg).
The relative humidity was 94.2%.
 
There were a few clouds at a height of 366 meters (1200 feet) and broken clouds at a height of 3658 meters (12000 feet).
 
The overall visibility was 8.0 kilometers (5.0 miles).
 
Currently light rain.

 
 
 
 

Country :   A   B   C   D   E   F   G   H   I   J   K   L   M   N   O   P   Q   R   S   T   U   V   W   Y   Z

 

Site Info  |  Disclaimer  |  Credits  |  Privacy
Contact us  |  Add to favorites
© 2013-2020 METARs - All rights reserved